Kralendijk, Netherlands Antilles
Current Conditions -  °F | °C
As of 2:00 AM on Friday 28 Nov 2014 (Local Time) from TNCC Reporting Station
Few Clouds Few Clouds  
Wind Chill: 27°   Ceiling: Unl
Heat Index: 30°   Visibility: 6mi
Dew Point: 23°   Wind: 9mph
Humidity: 79%   Direction: 110°ESE
Pressure: 29.85"   Gusts: NA
Location:  12.15°N, 68.28°W
Report Text: TNCC 280600Z 11008KT 9999 FEW015 27/23 Q1011 NOSIG
Loading
Personal Weather Stations






























Interactive Weather Map New forecast layout! Learn more

10-Day Weather Forecast

Advertisements
Track Severe Weather on mobile